sensor_id;sensor_type;location;lat;lon;timestamp;P1;durP1;ratioP1;P2;durP2;ratioP2
26303;SDS011;70693;48.680;8.890;2024-02-21T00:00:04;4.13;;;2.58;;
26303;SDS011;70693;48.680;8.890;2024-02-21T00:02:30;5.00;;;2.70;;
26303;SDS011;70693;48.680;8.890;2024-02-21T00:04:56;5.45;;;2.40;;
26303;SDS011;70693;48.680;8.890;2024-02-21T00:07:22;6.80;;;2.50;;
26303;SDS011;70693;48.680;8.890;2024-02-21T00:09:47;5.50;;;2.60;;
26303;SDS011;70693;48.680;8.890;2024-02-21T00:12:14;5.38;;;2.70;;
26303;SDS011;70693;48.680;8.890;2024-02-21T00:14:39;5.40;;;2.63;;
26303;SDS011;70693;48.680;8.890;2024-02-21T00:17:05;5.13;;;2.30;;
26303;SDS011;70693;48.680;8.890;2024-02-21T00:19:31;4.82;;;2.63;;
26303;SDS011;70693;48.680;8.890;2024-02-21T00:21:57;5.43;;;2.53;;
26303;SDS011;70693;48.680;8.890;2024-02-21T00:24:22;5.88;;;2.30;;
26303;SDS011;70693;48.680;8.890;2024-02-21T00:26:48;5.45;;;2.78;;
26303;SDS011;70693;48.680;8.890;2024-02-21T00:29:13;6.03;;;2.47;;
26303;SDS011;70693;48.680;8.890;2024-02-21T00:31:39;4.93;;;2.47;;
26303;SDS011;70693;48.680;8.890;2024-02-21T00:34:05;4.60;;;2.20;;
26303;SDS011;70693;48.680;8.890;2024-02-21T00:36:30;4.22;;;2.45;;
26303;SDS011;70693;48.680;8.890;2024-02-21T00:38:56;3.40;;;2.10;;
26303;SDS011;70693;48.680;8.890;2024-02-21T00:41:21;4.53;;;2.65;;
26303;SDS011;70693;48.680;8.890;2024-02-21T00:43:47;4.22;;;2.15;;
26303;SDS011;70693;48.680;8.890;2024-02-21T00:46:15;4.00;;;2.30;;
26303;SDS011;70693;48.680;8.890;2024-02-21T00:48:40;5.57;;;2.45;;
26303;SDS011;70693;48.680;8.890;2024-02-21T00:51:06;3.85;;;2.05;;
26303;SDS011;70693;48.680;8.890;2024-02-21T00:53:31;4.53;;;2.30;;
26303;SDS011;70693;48.680;8.890;2024-02-21T00:55:57;4.00;;;2.38;;
26303;SDS011;70693;48.680;8.890;2024-02-21T00:58:23;3.58;;;2.28;;
26303;SDS011;70693;48.680;8.890;2024-02-21T01:00:48;4.68;;;2.33;;
26303;SDS011;70693;48.680;8.890;2024-02-21T01:03:14;5.30;;;2.65;;
26303;SDS011;70693;48.680;8.890;2024-02-21T01:05:40;4.75;;;2.60;;
26303;SDS011;70693;48.680;8.890;2024-02-21T01:08:05;3.80;;;2.20;;
26303;SDS011;70693;48.680;8.890;2024-02-21T01:10:31;3.33;;;2.17;;
26303;SDS011;70693;48.680;8.890;2024-02-21T01:12:57;4.18;;;2.22;;
26303;SDS011;70693;48.680;8.890;2024-02-21T01:15:23;3.92;;;2.53;;
26303;SDS011;70693;48.680;8.890;2024-02-21T01:17:49;2.80;;;1.90;;
26303;SDS011;70693;48.680;8.890;2024-02-21T01:20:19;4.25;;;2.30;;
26303;SDS011;70693;48.680;8.890;2024-02-21T01:22:45;4.53;;;2.38;;
26303;SDS011;70693;48.680;8.890;2024-02-21T01:25:11;5.22;;;2.65;;
26303;SDS011;70693;48.680;8.890;2024-02-21T01:27:36;3.80;;;2.00;;
26303;SDS011;70693;48.680;8.890;2024-02-21T01:30:02;3.92;;;2.38;;
26303;SDS011;70693;48.680;8.890;2024-02-21T01:32:28;3.40;;;1.90;;
26303;SDS011;70693;48.680;8.890;2024-02-21T01:34:54;3.78;;;2.05;;
26303;SDS011;70693;48.680;8.890;2024-02-21T01:37:19;5.25;;;2.20;;
26303;SDS011;70693;48.680;8.890;2024-02-21T01:39:45;3.78;;;2.08;;
26303;SDS011;70693;48.680;8.890;2024-02-21T01:42:10;5.00;;;1.90;;
26303;SDS011;70693;48.680;8.890;2024-02-21T01:44:36;3.53;;;1.95;;
26303;SDS011;70693;48.680;8.890;2024-02-21T01:47:03;4.72;;;2.30;;
26303;SDS011;70693;48.680;8.890;2024-02-21T01:49:28;4.32;;;2.55;;
26303;SDS011;70693;48.680;8.890;2024-02-21T01:51:55;4.13;;;1.80;;
26303;SDS011;70693;48.680;8.890;2024-02-21T01:54:21;4.25;;;2.10;;
26303;SDS011;70693;48.680;8.890;2024-02-21T01:56:47;3.85;;;2.00;;
26303;SDS011;70693;48.680;8.890;2024-02-21T01:59:13;3.90;;;2.00;;
26303;SDS011;70693;48.680;8.890;2024-02-21T02:01:41;3.75;;;1.88;;
26303;SDS011;70693;48.680;8.890;2024-02-21T02:04:07;4.63;;;2.20;;
26303;SDS011;70693;48.680;8.890;2024-02-21T02:06:33;4.15;;;2.17;;
26303;SDS011;70693;48.680;8.890;2024-02-21T02:09:00;4.40;;;2.17;;
26303;SDS011;70693;48.680;8.890;2024-02-21T02:11:25;3.55;;;1.80;;
26303;SDS011;70693;48.680;8.890;2024-02-21T02:13:51;3.28;;;1.85;;
26303;SDS011;70693;48.680;8.890;2024-02-21T02:16:16;6.05;;;2.20;;
26303;SDS011;70693;48.680;8.890;2024-02-21T02:18:42;2.80;;;1.75;;
26303;SDS011;70693;48.680;8.890;2024-02-21T02:21:10;3.05;;;1.50;;
26303;SDS011;70693;48.680;8.890;2024-02-21T02:23:48;6.93;;;2.30;;
26303;SDS011;70693;48.680;8.890;2024-02-21T02:26:14;3.38;;;1.80;;
26303;SDS011;70693;48.680;8.890;2024-02-21T02:28:40;4.30;;;1.88;;
26303;SDS011;70693;48.680;8.890;2024-02-21T02:31:05;4.20;;;1.88;;
26303;SDS011;70693;48.680;8.890;2024-02-21T02:33:31;2.80;;;1.70;;
26303;SDS011;70693;48.680;8.890;2024-02-21T02:35:56;3.10;;;1.80;;
26303;SDS011;70693;48.680;8.890;2024-02-21T02:38:23;3.33;;;1.80;;
26303;SDS011;70693;48.680;8.890;2024-02-21T02:40:49;4.45;;;1.45;;
26303;SDS011;70693;48.680;8.890;2024-02-21T02:43:14;3.45;;;1.80;;
26303;SDS011;70693;48.680;8.890;2024-02-21T02:45:40;4.10;;;1.88;;
26303;SDS011;70693;48.680;8.890;2024-02-21T02:48:06;2.80;;;1.77;;
26303;SDS011;70693;48.680;8.890;2024-02-21T02:50:32;4.32;;;1.65;;
26303;SDS011;70693;48.680;8.890;2024-02-21T02:52:57;3.05;;;1.48;;
26303;SDS011;70693;48.680;8.890;2024-02-21T02:55:23;2.53;;;1.65;;
26303;SDS011;70693;48.680;8.890;2024-02-21T02:57:49;2.10;;;1.40;;
26303;SDS011;70693;48.680;8.890;2024-02-21T03:00:14;3.00;;;1.80;;
26303;SDS011;70693;48.680;8.890;2024-02-21T03:02:41;3.33;;;1.48;;
26303;SDS011;70693;48.680;8.890;2024-02-21T03:05:11;3.70;;;1.75;;
26303;SDS011;70693;48.680;8.890;2024-02-21T03:07:39;3.20;;;1.52;;
26303;SDS011;70693;48.680;8.890;2024-02-21T03:10:05;3.25;;;1.42;;
26303;SDS011;70693;48.680;8.890;2024-02-21T03:12:31;4.78;;;2.08;;
26303;SDS011;70693;48.680;8.890;2024-02-21T03:14:57;3.85;;;1.50;;
26303;SDS011;70693;48.680;8.890;2024-02-21T03:17:22;2.78;;;1.30;;
26303;SDS011;70693;48.680;8.890;2024-02-21T03:19:49;4.18;;;1.70;;
26303;SDS011;70693;48.680;8.890;2024-02-21T03:22:15;2.97;;;1.90;;
26303;SDS011;70693;48.680;8.890;2024-02-21T03:24:41;2.53;;;1.63;;
26303;SDS011;70693;48.680;8.890;2024-02-21T03:27:07;2.58;;;1.48;;
26303;SDS011;70693;48.680;8.890;2024-02-21T03:29:33;3.13;;;1.77;;
26303;SDS011;70693;48.680;8.890;2024-02-21T03:31:59;3.70;;;1.40;;
26303;SDS011;70693;48.680;8.890;2024-02-21T03:34:24;3.20;;;1.40;;
26303;SDS011;70693;48.680;8.890;2024-02-21T03:36:50;3.20;;;1.63;;
26303;SDS011;70693;48.680;8.890;2024-02-21T03:39:15;2.72;;;1.58;;
26303;SDS011;70693;48.680;8.890;2024-02-21T03:41:41;2.80;;;1.50;;
26303;SDS011;70693;48.680;8.890;2024-02-21T03:44:07;3.72;;;1.58;;
26303;SDS011;70693;48.680;8.890;2024-02-21T03:46:32;4.85;;;1.88;;
26303;SDS011;70693;48.680;8.890;2024-02-21T03:48:58;2.38;;;1.42;;
26303;SDS011;70693;48.680;8.890;2024-02-21T03:51:25;4.47;;;1.75;;
26303;SDS011;70693;48.680;8.890;2024-02-21T03:53:51;2.72;;;1.42;;
26303;SDS011;70693;48.680;8.890;2024-02-21T03:56:17;2.78;;;1.40;;
26303;SDS011;70693;48.680;8.890;2024-02-21T03:58:42;3.25;;;1.50;;
26303;SDS011;70693;48.680;8.890;2024-02-21T04:01:08;2.08;;;1.30;;
26303;SDS011;70693;48.680;8.890;2024-02-21T04:03:33;3.92;;;1.50;;
26303;SDS011;70693;48.680;8.890;2024-02-21T04:05:59;3.25;;;1.60;;
26303;SDS011;70693;48.680;8.890;2024-02-21T04:08:25;4.53;;;1.67;;
26303;SDS011;70693;48.680;8.890;2024-02-21T04:10:51;3.55;;;1.20;;
26303;SDS011;70693;48.680;8.890;2024-02-21T04:13:16;2.97;;;1.40;;
26303;SDS011;70693;48.680;8.890;2024-02-21T04:15:42;3.35;;;1.67;;
26303;SDS011;70693;48.680;8.890;2024-02-21T04:18:08;3.17;;;1.40;;
26303;SDS011;70693;48.680;8.890;2024-02-21T04:20:34;2.85;;;1.33;;
26303;SDS011;70693;48.680;8.890;2024-02-21T04:23:00;3.10;;;1.20;;
26303;SDS011;70693;48.680;8.890;2024-02-21T04:25:26;3.17;;;1.30;;
26303;SDS011;70693;48.680;8.890;2024-02-21T04:27:52;2.85;;;1.48;;
26303;SDS011;70693;48.680;8.890;2024-02-21T04:30:17;3.95;;;1.58;;
26303;SDS011;70693;48.680;8.890;2024-02-21T04:32:43;4.88;;;1.60;;
26303;SDS011;70693;48.680;8.890;2024-02-21T04:35:08;2.95;;;1.60;;
26303;SDS011;70693;48.680;8.890;2024-02-21T04:37:34;3.58;;;1.60;;
26303;SDS011;70693;48.680;8.890;2024-02-21T04:40:00;3.03;;;1.30;;
26303;SDS011;70693;48.680;8.890;2024-02-21T04:42:26;2.97;;;1.35;;
26303;SDS011;70693;48.680;8.890;2024-02-21T04:44:51;2.55;;;1.20;;
26303;SDS011;70693;48.680;8.890;2024-02-21T04:47:18;3.10;;;1.25;;
26303;SDS011;70693;48.680;8.890;2024-02-21T04:49:44;2.63;;;1.50;;
26303;SDS011;70693;48.680;8.890;2024-02-21T04:52:11;3.25;;;1.40;;
26303;SDS011;70693;48.680;8.890;2024-02-21T04:54:36;2.88;;;1.38;;
26303;SDS011;70693;48.680;8.890;2024-02-21T04:57:02;2.97;;;1.35;;
26303;SDS011;70693;48.680;8.890;2024-02-21T04:59:28;1.95;;;1.00;;
26303;SDS011;70693;48.680;8.890;2024-02-21T05:01:54;2.78;;;1.58;;
26303;SDS011;70693;48.680;8.890;2024-02-21T05:04:20;2.42;;;1.00;;
26303;SDS011;70693;48.680;8.890;2024-02-21T05:06:46;3.58;;;1.27;;
26303;SDS011;70693;48.680;8.890;2024-02-21T05:09:11;2.38;;;1.30;;
26303;SDS011;70693;48.680;8.890;2024-02-21T05:11:37;6.20;;;1.63;;
26303;SDS011;70693;48.680;8.890;2024-02-21T05:14:03;2.60;;;1.42;;
26303;SDS011;70693;48.680;8.890;2024-02-21T05:16:29;2.70;;;1.17;;
26303;SDS011;70693;48.680;8.890;2024-02-21T05:18:58;3.05;;;1.50;;
26303;SDS011;70693;48.680;8.890;2024-02-21T05:21:24;3.05;;;1.20;;
26303;SDS011;70693;48.680;8.890;2024-02-21T05:23:50;3.60;;;1.20;;
26303;SDS011;70693;48.680;8.890;2024-02-21T05:26:22;3.20;;;1.42;;
26303;SDS011;70693;48.680;8.890;2024-02-21T05:28:49;3.67;;;1.30;;
26303;SDS011;70693;48.680;8.890;2024-02-21T05:31:18;2.20;;;1.25;;
26303;SDS011;70693;48.680;8.890;2024-02-21T05:33:45;2.92;;;1.20;;
26303;SDS011;70693;48.680;8.890;2024-02-21T05:36:11;2.53;;;1.30;;
26303;SDS011;70693;48.680;8.890;2024-02-21T05:38:37;2.15;;;1.17;;
26303;SDS011;70693;48.680;8.890;2024-02-21T05:41:03;1.95;;;1.05;;
26303;SDS011;70693;48.680;8.890;2024-02-21T05:43:29;6.35;;;1.80;;
26303;SDS011;70693;48.680;8.890;2024-02-21T05:45:55;5.93;;;1.67;;
26303;SDS011;70693;48.680;8.890;2024-02-21T05:48:21;4.78;;;1.48;;
26303;SDS011;70693;48.680;8.890;2024-02-21T05:50:47;5.60;;;1.67;;
26303;SDS011;70693;48.680;8.890;2024-02-21T05:53:14;4.18;;;1.30;;
26303;SDS011;70693;48.680;8.890;2024-02-21T05:55:40;6.07;;;1.70;;
26303;SDS011;70693;48.680;8.890;2024-02-21T05:58:06;4.15;;;1.98;;
26303;SDS011;70693;48.680;8.890;2024-02-21T06:00:32;3.05;;;1.42;;
26303;SDS011;70693;48.680;8.890;2024-02-21T06:02:58;5.53;;;1.70;;
26303;SDS011;70693;48.680;8.890;2024-02-21T06:05:24;4.63;;;1.40;;
26303;SDS011;70693;48.680;8.890;2024-02-21T06:07:50;4.75;;;1.60;;
26303;SDS011;70693;48.680;8.890;2024-02-21T06:10:15;4.72;;;1.80;;
26303;SDS011;70693;48.680;8.890;2024-02-21T06:12:42;3.53;;;1.65;;
26303;SDS011;70693;48.680;8.890;2024-02-21T06:15:08;6.63;;;1.88;;
26303;SDS011;70693;48.680;8.890;2024-02-21T06:17:33;6.75;;;1.73;;
26303;SDS011;70693;48.680;8.890;2024-02-21T06:19:59;4.10;;;1.17;;
26303;SDS011;70693;48.680;8.890;2024-02-21T06:22:25;3.78;;;1.58;;
26303;SDS011;70693;48.680;8.890;2024-02-21T06:24:50;4.43;;;1.58;;
26303;SDS011;70693;48.680;8.890;2024-02-21T06:27:16;4.78;;;1.50;;
26303;SDS011;70693;48.680;8.890;2024-02-21T06:29:42;4.82;;;1.42;;
26303;SDS011;70693;48.680;8.890;2024-02-21T06:32:08;3.88;;;1.35;;
26303;SDS011;70693;48.680;8.890;2024-02-21T06:34:34;4.28;;;1.70;;
26303;SDS011;70693;48.680;8.890;2024-02-21T06:37:00;3.63;;;1.13;;
26303;SDS011;70693;48.680;8.890;2024-02-21T06:39:25;3.88;;;1.40;;
26303;SDS011;70693;48.680;8.890;2024-02-21T06:41:53;5.05;;;1.60;;
26303;SDS011;70693;48.680;8.890;2024-02-21T06:44:19;5.55;;;1.60;;
26303;SDS011;70693;48.680;8.890;2024-02-21T06:46:46;5.15;;;1.83;;
26303;SDS011;70693;48.680;8.890;2024-02-21T06:49:11;3.20;;;1.30;;
26303;SDS011;70693;48.680;8.890;2024-02-21T06:51:44;3.13;;;1.45;;
26303;SDS011;70693;48.680;8.890;2024-02-21T06:54:10;5.07;;;1.63;;
26303;SDS011;70693;48.680;8.890;2024-02-21T06:56:36;3.17;;;1.50;;
26303;SDS011;70693;48.680;8.890;2024-02-21T06:59:02;2.92;;;1.33;;
26303;SDS011;70693;48.680;8.890;2024-02-21T07:01:28;3.13;;;1.50;;
26303;SDS011;70693;48.680;8.890;2024-02-21T07:03:54;2.33;;;1.38;;
26303;SDS011;70693;48.680;8.890;2024-02-21T07:06:21;3.13;;;1.48;;
26303;SDS011;70693;48.680;8.890;2024-02-21T07:08:47;3.90;;;1.33;;
26303;SDS011;70693;48.680;8.890;2024-02-21T07:11:12;4.18;;;1.63;;
26303;SDS011;70693;48.680;8.890;2024-02-21T07:13:38;3.47;;;1.30;;
26303;SDS011;70693;48.680;8.890;2024-02-21T07:16:04;4.40;;;1.58;;
26303;SDS011;70693;48.680;8.890;2024-02-21T07:18:30;2.47;;;1.30;;
26303;SDS011;70693;48.680;8.890;2024-02-21T07:20:55;4.72;;;1.30;;
26303;SDS011;70693;48.680;8.890;2024-02-21T07:23:21;4.00;;;1.20;;
26303;SDS011;70693;48.680;8.890;2024-02-21T07:25:48;5.13;;;2.40;;
26303;SDS011;70693;48.680;8.890;2024-02-21T07:28:13;7.68;;;3.10;;
26303;SDS011;70693;48.680;8.890;2024-02-21T07:30:40;12.38;;;3.42;;
26303;SDS011;70693;48.680;8.890;2024-02-21T07:33:06;8.25;;;2.80;;
26303;SDS011;70693;48.680;8.890;2024-02-21T07:35:32;6.30;;;2.83;;
26303;SDS011;70693;48.680;8.890;2024-02-21T07:37:58;6.25;;;2.55;;
26303;SDS011;70693;48.680;8.890;2024-02-21T07:40:23;5.32;;;2.33;;
26303;SDS011;70693;48.680;8.890;2024-02-21T07:42:49;6.25;;;2.80;;
26303;SDS011;70693;48.680;8.890;2024-02-21T07:45:15;5.28;;;2.55;;
26303;SDS011;70693;48.680;8.890;2024-02-21T07:47:40;6.25;;;2.67;;
26303;SDS011;70693;48.680;8.890;2024-02-21T07:50:06;5.93;;;2.45;;
26303;SDS011;70693;48.680;8.890;2024-02-21T07:52:32;5.20;;;2.50;;
26303;SDS011;70693;48.680;8.890;2024-02-21T07:54:58;5.07;;;2.40;;
26303;SDS011;70693;48.680;8.890;2024-02-21T07:57:24;6.38;;;2.20;;
26303;SDS011;70693;48.680;8.890;2024-02-21T07:59:50;6.78;;;2.50;;
26303;SDS011;70693;48.680;8.890;2024-02-21T08:02:15;4.22;;;2.15;;
26303;SDS011;70693;48.680;8.890;2024-02-21T08:04:42;4.93;;;2.17;;
26303;SDS011;70693;48.680;8.890;2024-02-21T08:07:08;4.43;;;2.33;;
26303;SDS011;70693;48.680;8.890;2024-02-21T08:09:34;5.88;;;1.92;;
26303;SDS011;70693;48.680;8.890;2024-02-21T08:12:01;4.47;;;2.53;;
26303;SDS011;70693;48.680;8.890;2024-02-21T08:14:27;3.70;;;1.90;;
26303;SDS011;70693;48.680;8.890;2024-02-21T08:16:53;3.35;;;1.98;;
26303;SDS011;70693;48.680;8.890;2024-02-21T08:19:20;3.67;;;1.90;;
26303;SDS011;70693;48.680;8.890;2024-02-21T08:21:45;3.63;;;1.95;;
26303;SDS011;70693;48.680;8.890;2024-02-21T08:24:14;3.65;;;1.88;;
26303;SDS011;70693;48.680;8.890;2024-02-21T08:26:40;4.28;;;2.03;;
26303;SDS011;70693;48.680;8.890;2024-02-21T08:29:12;4.95;;;2.17;;
26303;SDS011;70693;48.680;8.890;2024-02-21T08:31:37;5.70;;;2.17;;
26303;SDS011;70693;48.680;8.890;2024-02-21T08:34:03;3.22;;;1.77;;
26303;SDS011;70693;48.680;8.890;2024-02-21T08:36:30;3.03;;;1.85;;
26303;SDS011;70693;48.680;8.890;2024-02-21T08:38:56;2.95;;;1.70;;
26303;SDS011;70693;48.680;8.890;2024-02-21T08:41:22;4.07;;;2.10;;
26303;SDS011;70693;48.680;8.890;2024-02-21T08:43:49;3.78;;;1.80;;
26303;SDS011;70693;48.680;8.890;2024-02-21T08:46:16;4.22;;;1.63;;
26303;SDS011;70693;48.680;8.890;2024-02-21T08:48:42;4.35;;;2.00;;
26303;SDS011;70693;48.680;8.890;2024-02-21T08:51:10;3.60;;;1.65;;
26303;SDS011;70693;48.680;8.890;2024-02-21T08:53:36;3.60;;;1.70;;
26303;SDS011;70693;48.680;8.890;2024-02-21T08:56:03;4.35;;;1.88;;
26303;SDS011;70693;48.680;8.890;2024-02-21T08:58:29;4.13;;;1.65;;
26303;SDS011;70693;48.680;8.890;2024-02-21T09:00:55;2.50;;;1.60;;
26303;SDS011;70693;48.680;8.890;2024-02-21T09:03:21;2.72;;;1.45;;
26303;SDS011;70693;48.680;8.890;2024-02-21T09:05:47;4.97;;;1.70;;
26303;SDS011;70693;48.680;8.890;2024-02-21T09:08:13;3.15;;;1.60;;
26303;SDS011;70693;48.680;8.890;2024-02-21T09:10:39;5.90;;;1.52;;
26303;SDS011;70693;48.680;8.890;2024-02-21T09:13:05;2.65;;;1.42;;
26303;SDS011;70693;48.680;8.890;2024-02-21T09:15:32;3.25;;;1.75;;
26303;SDS011;70693;48.680;8.890;2024-02-21T09:17:58;3.70;;;1.52;;
26303;SDS011;70693;48.680;8.890;2024-02-21T09:20:23;2.67;;;1.40;;
26303;SDS011;70693;48.680;8.890;2024-02-21T09:22:49;3.53;;;1.60;;
26303;SDS011;70693;48.680;8.890;2024-02-21T09:25:15;3.28;;;1.50;;
26303;SDS011;70693;48.680;8.890;2024-02-21T09:27:41;4.05;;;1.65;;
26303;SDS011;70693;48.680;8.890;2024-02-21T09:30:09;3.30;;;1.42;;
26303;SDS011;70693;48.680;8.890;2024-02-21T09:32:34;2.35;;;1.23;;
26303;SDS011;70693;48.680;8.890;2024-02-21T09:35:01;2.30;;;1.30;;
26303;SDS011;70693;48.680;8.890;2024-02-21T09:37:27;3.33;;;1.30;;
26303;SDS011;70693;48.680;8.890;2024-02-21T09:39:52;3.42;;;1.73;;
26303;SDS011;70693;48.680;8.890;2024-02-21T09:42:19;2.55;;;1.25;;
26303;SDS011;70693;48.680;8.890;2024-02-21T09:44:46;2.72;;;1.33;;
26303;SDS011;70693;48.680;8.890;2024-02-21T09:47:17;2.42;;;1.55;;
26303;SDS011;70693;48.680;8.890;2024-02-21T09:49:48;2.80;;;1.80;;
26303;SDS011;70693;48.680;8.890;2024-02-21T09:52:13;2.25;;;1.40;;
26303;SDS011;70693;48.680;8.890;2024-02-21T09:54:40;2.60;;;1.50;;
26303;SDS011;70693;48.680;8.890;2024-02-21T09:57:09;4.22;;;1.75;;
26303;SDS011;70693;48.680;8.890;2024-02-21T09:59:35;3.97;;;1.73;;
26303;SDS011;70693;48.680;8.890;2024-02-21T10:02:02;3.00;;;1.77;;
26303;SDS011;70693;48.680;8.890;2024-02-21T10:04:28;3.70;;;1.80;;
26303;SDS011;70693;48.680;8.890;2024-02-21T10:06:54;3.55;;;1.83;;
26303;SDS011;70693;48.680;8.890;2024-02-21T10:09:24;2.67;;;1.25;;
26303;SDS011;70693;48.680;8.890;2024-02-21T10:11:54;3.25;;;1.60;;
26303;SDS011;70693;48.680;8.890;2024-02-21T10:14:20;2.30;;;1.40;;
26303;SDS011;70693;48.680;8.890;2024-02-21T10:16:47;2.80;;;1.60;;
26303;SDS011;70693;48.680;8.890;2024-02-21T10:19:17;2.20;;;1.30;;
26303;SDS011;70693;48.680;8.890;2024-02-21T10:22:02;2.60;;;1.63;;
26303;SDS011;70693;48.680;8.890;2024-02-21T10:24:32;2.55;;;1.63;;
26303;SDS011;70693;48.680;8.890;2024-02-21T10:27:02;2.72;;;1.30;;
26303;SDS011;70693;48.680;8.890;2024-02-21T10:29:32;3.10;;;1.42;;
26303;SDS011;70693;48.680;8.890;2024-02-21T10:32:11;3.00;;;1.48;;
26303;SDS011;70693;48.680;8.890;2024-02-21T10:34:38;2.47;;;1.38;;
26303;SDS011;70693;48.680;8.890;2024-02-21T10:37:05;3.50;;;1.50;;
26303;SDS011;70693;48.680;8.890;2024-02-21T10:39:32;3.22;;;1.55;;
26303;SDS011;70693;48.680;8.890;2024-02-21T10:41:59;2.58;;;1.30;;
26303;SDS011;70693;48.680;8.890;2024-02-21T10:44:30;3.47;;;1.50;;
26303;SDS011;70693;48.680;8.890;2024-02-21T10:46:57;2.20;;;1.23;;
26303;SDS011;70693;48.680;8.890;2024-02-21T10:49:24;2.40;;;1.30;;
26303;SDS011;70693;48.680;8.890;2024-02-21T10:51:50;4.30;;;1.40;;
26303;SDS011;70693;48.680;8.890;2024-02-21T10:56:57;3.10;;;1.25;;
26303;SDS011;70693;48.680;8.890;2024-02-21T10:59:25;3.05;;;1.40;;
26303;SDS011;70693;48.680;8.890;2024-02-21T11:01:54;3.15;;;1.30;;
26303;SDS011;70693;48.680;8.890;2024-02-21T11:04:19;2.03;;;1.20;;
26303;SDS011;70693;48.680;8.890;2024-02-21T11:06:46;2.05;;;1.17;;
26303;SDS011;70693;48.680;8.890;2024-02-21T11:09:12;2.17;;;1.45;;
26303;SDS011;70693;48.680;8.890;2024-02-21T11:11:39;2.47;;;1.30;;
26303;SDS011;70693;48.680;8.890;2024-02-21T11:14:08;2.10;;;1.20;;
26303;SDS011;70693;48.680;8.890;2024-02-21T11:16:35;2.15;;;1.10;;
26303;SDS011;70693;48.680;8.890;2024-02-21T11:19:08;1.75;;;1.20;;
26303;SDS011;70693;48.680;8.890;2024-02-21T11:21:36;2.90;;;1.35;;
26303;SDS011;70693;48.680;8.890;2024-02-21T11:24:03;2.50;;;1.30;;
26303;SDS011;70693;48.680;8.890;2024-02-21T11:26:29;1.75;;;1.23;;
26303;SDS011;70693;48.680;8.890;2024-02-21T11:28:59;3.70;;;1.30;;
26303;SDS011;70693;48.680;8.890;2024-02-21T11:31:26;2.10;;;1.10;;
26303;SDS011;70693;48.680;8.890;2024-02-21T11:33:52;1.63;;;0.98;;
26303;SDS011;70693;48.680;8.890;2024-02-21T11:36:25;2.53;;;1.30;;
26303;SDS011;70693;48.680;8.890;2024-02-21T11:38:51;3.08;;;1.30;;
26303;SDS011;70693;48.680;8.890;2024-02-21T11:41:20;2.25;;;1.17;;
26303;SDS011;70693;48.680;8.890;2024-02-21T11:43:48;2.05;;;1.00;;
26303;SDS011;70693;48.680;8.890;2024-02-21T11:46:14;3.30;;;1.27;;
26303;SDS011;70693;48.680;8.890;2024-02-21T11:48:40;2.80;;;1.30;;
26303;SDS011;70693;48.680;8.890;2024-02-21T11:51:09;1.45;;;0.90;;
26303;SDS011;70693;48.680;8.890;2024-02-21T11:53:35;2.17;;;1.17;;
26303;SDS011;70693;48.680;8.890;2024-02-21T11:56:00;2.33;;;0.95;;
26303;SDS011;70693;48.680;8.890;2024-02-21T11:58:26;3.45;;;1.30;;
26303;SDS011;70693;48.680;8.890;2024-02-21T12:00:52;2.05;;;0.90;;
26303;SDS011;70693;48.680;8.890;2024-02-21T12:03:17;2.35;;;1.15;;
26303;SDS011;70693;48.680;8.890;2024-02-21T12:05:43;1.85;;;1.08;;
26303;SDS011;70693;48.680;8.890;2024-02-21T12:08:11;2.05;;;1.05;;
26303;SDS011;70693;48.680;8.890;2024-02-21T12:10:37;2.17;;;1.00;;
26303;SDS011;70693;48.680;8.890;2024-02-21T12:13:08;2.92;;;1.00;;
26303;SDS011;70693;48.680;8.890;2024-02-21T12:15:34;1.08;;;0.75;;
26303;SDS011;70693;48.680;8.890;2024-02-21T12:18:00;1.55;;;0.80;;
26303;SDS011;70693;48.680;8.890;2024-02-21T12:20:26;1.80;;;1.10;;
26303;SDS011;70693;48.680;8.890;2024-02-21T12:22:51;1.50;;;0.88;;
26303;SDS011;70693;48.680;8.890;2024-02-21T12:25:19;1.20;;;0.82;;
26303;SDS011;70693;48.680;8.890;2024-02-21T12:27:51;4.85;;;1.58;;
26303;SDS011;70693;48.680;8.890;2024-02-21T12:30:17;2.80;;;0.95;;
26303;SDS011;70693;48.680;8.890;2024-02-21T12:32:44;2.25;;;1.02;;
26303;SDS011;70693;48.680;8.890;2024-02-21T12:35:10;2.40;;;1.00;;
26303;SDS011;70693;48.680;8.890;2024-02-21T12:37:36;3.67;;;1.13;;
26303;SDS011;70693;48.680;8.890;2024-02-21T12:40:03;2.30;;;0.98;;
26303;SDS011;70693;48.680;8.890;2024-02-21T12:42:33;2.28;;;1.10;;
26303;SDS011;70693;48.680;8.890;2024-02-21T12:45:00;2.58;;;0.90;;
26303;SDS011;70693;48.680;8.890;2024-02-21T12:47:25;1.73;;;0.93;;
26303;SDS011;70693;48.680;8.890;2024-02-21T12:49:52;2.55;;;1.00;;
26303;SDS011;70693;48.680;8.890;2024-02-21T12:52:18;2.33;;;0.98;;
26303;SDS011;70693;48.680;8.890;2024-02-21T12:54:44;2.03;;;0.85;;
26303;SDS011;70693;48.680;8.890;2024-02-21T12:57:09;2.75;;;0.95;;
26303;SDS011;70693;48.680;8.890;2024-02-21T12:59:35;4.72;;;1.10;;
26303;SDS011;70693;48.680;8.890;2024-02-21T13:02:01;2.05;;;0.88;;
26303;SDS011;70693;48.680;8.890;2024-02-21T13:04:26;2.95;;;0.85;;
26303;SDS011;70693;48.680;8.890;2024-02-21T13:06:52;3.47;;;0.93;;
26303;SDS011;70693;48.680;8.890;2024-02-21T13:09:17;2.78;;;1.08;;
26303;SDS011;70693;48.680;8.890;2024-02-21T13:11:43;1.55;;;0.82;;
26303;SDS011;70693;48.680;8.890;2024-02-21T13:14:11;2.90;;;0.68;;
26303;SDS011;70693;48.680;8.890;2024-02-21T13:16:37;3.40;;;0.80;;
26303;SDS011;70693;48.680;8.890;2024-02-21T13:19:06;2.03;;;0.90;;
26303;SDS011;70693;48.680;8.890;2024-02-21T13:21:33;3.20;;;0.90;;
26303;SDS011;70693;48.680;8.890;2024-02-21T13:24:02;1.92;;;0.85;;
26303;SDS011;70693;48.680;8.890;2024-02-21T13:26:28;2.20;;;0.90;;
26303;SDS011;70693;48.680;8.890;2024-02-21T13:29:00;1.30;;;0.70;;
26303;SDS011;70693;48.680;8.890;2024-02-21T13:31:26;1.08;;;0.60;;
26303;SDS011;70693;48.680;8.890;2024-02-21T13:33:52;1.85;;;0.80;;
26303;SDS011;70693;48.680;8.890;2024-02-21T13:36:17;2.50;;;0.80;;
26303;SDS011;70693;48.680;8.890;2024-02-21T13:38:44;2.08;;;0.60;;
26303;SDS011;70693;48.680;8.890;2024-02-21T13:41:10;1.67;;;0.70;;
26303;SDS011;70693;48.680;8.890;2024-02-21T13:43:35;1.77;;;0.60;;
26303;SDS011;70693;48.680;8.890;2024-02-21T13:46:01;1.15;;;0.68;;
26303;SDS011;70693;48.680;8.890;2024-02-21T13:48:34;2.00;;;0.80;;
26303;SDS011;70693;48.680;8.890;2024-02-21T13:51:00;0.85;;;0.52;;
26303;SDS011;70693;48.680;8.890;2024-02-21T13:53:27;2.50;;;0.73;;
26303;SDS011;70693;48.680;8.890;2024-02-21T13:55:53;1.48;;;0.80;;
26303;SDS011;70693;48.680;8.890;2024-02-21T13:58:19;1.45;;;0.68;;
26303;SDS011;70693;48.680;8.890;2024-02-21T14:00:45;1.55;;;0.68;;
26303;SDS011;70693;48.680;8.890;2024-02-21T14:03:10;1.65;;;0.60;;
26303;SDS011;70693;48.680;8.890;2024-02-21T14:05:36;1.00;;;0.73;;
26303;SDS011;70693;48.680;8.890;2024-02-21T14:08:02;1.63;;;0.70;;
26303;SDS011;70693;48.680;8.890;2024-02-21T14:10:28;1.10;;;0.60;;
26303;SDS011;70693;48.680;8.890;2024-02-21T14:12:53;1.35;;;0.50;;
26303;SDS011;70693;48.680;8.890;2024-02-21T14:15:20;1.10;;;0.60;;
26303;SDS011;70693;48.680;8.890;2024-02-21T14:17:45;2.30;;;0.70;;
26303;SDS011;70693;48.680;8.890;2024-02-21T14:20:11;0.82;;;0.30;;
26303;SDS011;70693;48.680;8.890;2024-02-21T14:22:39;0.95;;;0.50;;
26303;SDS011;70693;48.680;8.890;2024-02-21T14:25:04;1.70;;;0.80;;
26303;SDS011;70693;48.680;8.890;2024-02-21T14:27:30;1.20;;;0.40;;
26303;SDS011;70693;48.680;8.890;2024-02-21T14:29:57;1.67;;;0.70;;
26303;SDS011;70693;48.680;8.890;2024-02-21T14:32:22;1.23;;;0.50;;
26303;SDS011;70693;48.680;8.890;2024-02-21T14:34:48;1.30;;;0.60;;
26303;SDS011;70693;48.680;8.890;2024-02-21T14:37:14;0.73;;;0.50;;
26303;SDS011;70693;48.680;8.890;2024-02-21T14:39:40;0.80;;;0.50;;
26303;SDS011;70693;48.680;8.890;2024-02-21T14:42:07;1.02;;;0.60;;
26303;SDS011;70693;48.680;8.890;2024-02-21T14:44:34;2.83;;;0.65;;